Terminal Aerodrome Forecast
Issued by NWS Portland, ME

Home | Current Version | Previous Version | Text Only | Print | Product List | Glossary On
Versions: 1 2 3 4 5 6 7 8 9 10 11 12 13 14 15 16 17 18
671
FTUS41 KGYX 011720
TAFPWM
TAF
KPWM 011720Z 0118/0218 18008KT P6SM BKN060 OVC100
      TEMPO 0118/0120 -SHRA BKN050 OVC080
     FM012000 17007KT P6SM -SHRA SCT025 BKN045 OVC060
     FM020400 10005KT 5SM -DZ BR BKN012 OVC025
     FM021200 07006KT 2SM -SHRA BR OVC004=

USA.gov is the U.S. government's official web portal to all federal, state and local government web resources and services.